Congo, Brazil
Current Conditions -  °F | °C
As of 11:00 AM on Saturday 22 Nov 2014 (Local Time) from SBKG Reporting Station
Rain Showers Rain Showers  
Wind Chill: 77°   Ceiling: 2000
Heat Index: 78°   Visibility: 6mi
Dew Point: 72°   Wind: 10mph
Humidity: 83%   Direction: 110°ESE
Pressure: NA   Gusts: NA
Location:  7.8°S, 36.66°W
Report Text: SBKG 221400Z 11009KT 070V140 9999 VCSH SCT011 BKN020 25/22 Q1016
Loading
Personal Weather Stations






























Interactive Weather Map New forecast layout! Learn more

10-Day Weather Forecast

Advertisements
Track Severe Weather on mobile